KMHK/MHK METAR and TAF weather

Enter ICAO airport designator
Station Type Date Time Source
KMHK METAR 2022/08/13 10:52 UTC NOAA

KMHK 131052Z 22006KT 10SM CLR 21/17 A3005 RMK AO2 SLP163 T02060172


Station Type Date Time Source
KMHK Decoded METAR 2022/08/13 10:52 UTC NOAA

MANHATTAN REGIONAL AIRPORT, KS, United States (KMHK) 39-08N 96-41W 317M
Aug 13, 2022 - 06:52 AM EDT / 2022.08.13 1052 UTC
Wind: from the SW (220 degrees) at 7 MPH (6 KT):0
Visibility: 10 mile(s):0
Sky conditions: clear
Temperature: 69.1 F (20.6 C)
Dew Point: 63.0 F (17.2 C)
Relative Humidity: 80%
Pressure (altimeter): 30.05 in. Hg (1017 hPa)
ob: KMHK 131052Z 22006KT 10SM CLR 21/17 A3005 RMK AO2 SLP163 T02060172
cycle: 11

Station Type Date Time Source
KMHK TAF 2022/08/13 06:42 UTC NOAA

TAF KMHK 130539Z 1306/1406 20005KT P6SM SKC
FM131400 22010KT P6SM SKC

Example: see airport list